sensor_id;sensor_type;location;lat;lon;timestamp;pressure;altitude;pressure_sealevel;temperature;humidity
42671;BME280;28283;55.426;37.756;2023-02-14T00:04:45;98173.59;;;0.79;81.29
42671;BME280;28283;55.426;37.756;2023-02-14T00:09:47;98177.22;;;0.70;82.31
42671;BME280;28283;55.426;37.756;2023-02-14T00:14:47;98162.69;;;0.74;81.91
42671;BME280;28283;55.426;37.756;2023-02-14T00:20:07;98193.25;;;0.85;81.46
42671;BME280;28283;55.426;37.756;2023-02-14T00:25:10;98190.28;;;0.71;82.36
42671;BME280;28283;55.426;37.756;2023-02-14T00:30:12;98193.09;;;0.62;83.51
42671;BME280;28283;55.426;37.756;2023-02-14T00:35:13;98167.50;;;0.46;83.98
42671;BME280;28283;55.426;37.756;2023-02-14T00:40:13;98166.66;;;0.53;83.50
42671;BME280;28283;55.426;37.756;2023-02-14T07:45:13;98467.00;;;0.64;85.66
42671;BME280;28283;55.426;37.756;2023-02-14T07:50:14;98443.53;;;0.69;84.70
42671;BME280;28283;55.426;37.756;2023-02-14T07:55:15;98462.72;;;0.71;85.16
42671;BME280;28283;55.426;37.756;2023-02-14T08:00:16;98465.59;;;0.52;85.53
42671;BME280;28283;55.426;37.756;2023-02-14T08:05:17;98474.25;;;0.54;85.66
42671;BME280;28283;55.426;37.756;2023-02-14T08:10:18;98477.81;;;0.87;84.11
42671;BME280;28283;55.426;37.756;2023-02-14T08:15:19;98489.63;;;0.59;84.36
42671;BME280;28283;55.426;37.756;2023-02-14T08:20:38;98476.53;;;0.49;85.38
42671;BME280;28283;55.426;37.756;2023-02-14T08:25:39;98492.91;;;0.61;85.74
42671;BME280;28283;55.426;37.756;2023-02-14T08:30:43;98499.38;;;0.66;86.00
42671;BME280;28283;55.426;37.756;2023-02-14T08:35:44;98504.06;;;0.81;85.34
42671;BME280;28283;55.426;37.756;2023-02-14T08:40:45;98511.25;;;0.88;83.00
42671;BME280;28283;55.426;37.756;2023-02-14T08:45:46;98525.94;;;0.91;83.35
42671;BME280;28283;55.426;37.756;2023-02-14T08:50:47;98515.25;;;1.01;83.24
42671;BME280;28283;55.426;37.756;2023-02-14T08:55:49;98523.09;;;1.19;80.90
42671;BME280;28283;55.426;37.756;2023-02-14T09:00:50;98530.56;;;1.31;81.32
42671;BME280;28283;55.426;37.756;2023-02-14T09:05:50;98527.44;;;1.44;80.81
42671;BME280;28283;55.426;37.756;2023-02-14T09:10:51;98543.19;;;1.62;80.65
42671;BME280;28283;55.426;37.756;2023-02-14T09:15:51;98559.03;;;1.38;80.75
42671;BME280;28283;55.426;37.756;2023-02-14T09:20:52;98557.19;;;1.30;81.72
42671;BME280;28283;55.426;37.756;2023-02-14T09:26:04;98573.13;;;1.46;82.22
42671;BME280;28283;55.426;37.756;2023-02-14T09:31:10;98549.16;;;1.05;82.83
42671;BME280;28283;55.426;37.756;2023-02-14T09:36:11;98569.69;;;0.69;84.09
42671;BME280;28283;55.426;37.756;2023-02-14T09:46:52;98579.53;;;0.32;87.49
42671;BME280;28283;55.426;37.756;2023-02-14T09:51:54;98570.03;;;0.48;87.19
42671;BME280;28283;55.426;37.756;2023-02-14T10:29:19;98615.88;;;0.56;87.67
42671;BME280;28283;55.426;37.756;2023-02-14T10:34:32;98642.25;;;0.48;88.70
42671;BME280;28283;55.426;37.756;2023-02-14T10:50:51;98657.94;;;0.68;88.11
42671;BME280;28283;55.426;37.756;2023-02-14T10:56:07;98673.06;;;0.75;88.10
42671;BME280;28283;55.426;37.756;2023-02-14T11:01:14;98675.59;;;0.85;86.75
42671;BME280;28283;55.426;37.756;2023-02-14T11:06:16;98675.75;;;0.84;86.57
42671;BME280;28283;55.426;37.756;2023-02-14T11:11:23;98692.88;;;0.98;85.05
42671;BME280;28283;55.426;37.756;2023-02-14T11:16:35;98691.63;;;1.10;84.75
42671;BME280;28283;55.426;37.756;2023-02-14T11:21:37;98695.59;;;1.40;84.78
42671;BME280;28283;55.426;37.756;2023-02-14T11:26:43;98696.09;;;1.44;80.74
42671;BME280;28283;55.426;37.756;2023-02-14T11:31:44;98700.69;;;1.76;78.55
42671;BME280;28283;55.426;37.756;2023-02-14T11:36:44;98712.69;;;1.20;78.99
42671;BME280;28283;55.426;37.756;2023-02-14T11:41:53;98723.94;;;1.22;78.05
42671;BME280;28283;55.426;37.756;2023-02-14T11:46:56;98726.94;;;1.27;77.58
42671;BME280;28283;55.426;37.756;2023-02-14T11:51:59;98728.72;;;1.18;77.20
42671;BME280;28283;55.426;37.756;2023-02-14T11:57:03;98724.22;;;1.45;76.84
42671;BME280;28283;55.426;37.756;2023-02-14T12:02:28;98753.50;;;1.35;76.40
42671;BME280;28283;55.426;37.756;2023-02-14T12:07:32;98748.69;;;1.12;76.61
42671;BME280;28283;55.426;37.756;2023-02-14T12:12:38;98751.47;;;1.03;76.57
42671;BME280;28283;55.426;37.756;2023-02-14T12:17:48;98762.25;;;1.09;76.98
42671;BME280;28283;55.426;37.756;2023-02-14T12:23:11;98745.00;;;1.05;76.63
42671;BME280;28283;55.426;37.756;2023-02-14T12:28:21;98779.91;;;1.27;76.60
42671;BME280;28283;55.426;37.756;2023-02-14T12:33:24;98780.16;;;1.16;75.66
42671;BME280;28283;55.426;37.756;2023-02-14T12:44:49;98805.44;;;1.36;75.11
42671;BME280;28283;55.426;37.756;2023-02-14T12:49:32;98791.22;;;1.37;73.51
42671;BME280;28283;55.426;37.756;2023-02-14T12:54:58;98830.59;;;1.32;73.83
42671;BME280;28283;55.426;37.756;2023-02-14T13:10:57;98866.09;;;1.03;74.46
42671;BME280;28283;55.426;37.756;2023-02-14T13:16:17;98870.19;;;0.98;74.58
42671;BME280;28283;55.426;37.756;2023-02-14T13:21:24;98882.72;;;0.95;74.97
42671;BME280;28283;55.426;37.756;2023-02-14T13:26:32;98886.22;;;0.96;74.42
42671;BME280;28283;55.426;37.756;2023-02-14T13:31:36;98896.69;;;0.88;74.84
42671;BME280;28283;55.426;37.756;2023-02-14T13:36:38;98899.41;;;0.78;75.47
42671;BME280;28283;55.426;37.756;2023-02-14T13:41:38;98920.53;;;1.06;75.51
42671;BME280;28283;55.426;37.756;2023-02-14T13:46:46;98934.22;;;0.83;75.46
42671;BME280;28283;55.426;37.756;2023-02-14T13:51:56;98939.41;;;0.75;75.77
42671;BME280;28283;55.426;37.756;2023-02-14T13:56:59;98940.25;;;0.75;75.57
42671;BME280;28283;55.426;37.756;2023-02-14T14:07:27;98957.78;;;0.76;76.17
42671;BME280;28283;55.426;37.756;2023-02-14T14:22:48;98978.78;;;0.78;74.86
42671;BME280;28283;55.426;37.756;2023-02-14T14:27:50;98983.88;;;0.62;75.11
42671;BME280;28283;55.426;37.756;2023-02-14T14:32:50;98992.94;;;0.59;75.35
42671;BME280;28283;55.426;37.756;2023-02-14T14:37:57;99007.28;;;0.56;75.42
42671;BME280;28283;55.426;37.756;2023-02-14T14:43:06;99022.47;;;0.54;75.36
42671;BME280;28283;55.426;37.756;2023-02-14T14:48:11;99033.47;;;0.50;75.76
42671;BME280;28283;55.426;37.756;2023-02-14T14:54:06;99014.88;;;0.42;75.64
42671;BME280;28283;55.426;37.756;2023-02-14T14:58:41;99027.38;;;0.49;75.84
42671;BME280;28283;55.426;37.756;2023-02-14T15:03:42;98977.09;;;0.12;74.65
42671;BME280;28283;55.426;37.756;2023-02-14T15:08:43;99050.75;;;0.44;75.78
42671;BME280;28283;55.426;37.756;2023-02-14T15:13:49;99064.69;;;0.36;75.67
42671;BME280;28283;55.426;37.756;2023-02-14T15:18:58;99073.88;;;0.42;75.55
42671;BME280;28283;55.426;37.756;2023-02-14T15:24:01;99077.19;;;0.44;75.98
42671;BME280;28283;55.426;37.756;2023-02-14T15:29:04;99084.59;;;0.41;75.82
42671;BME280;28283;55.426;37.756;2023-02-14T15:34:06;99093.34;;;0.41;75.98
42671;BME280;28283;55.426;37.756;2023-02-14T15:39:07;99094.06;;;0.43;75.98
42671;BME280;28283;55.426;37.756;2023-02-14T15:44:20;99102.97;;;0.42;76.49
42671;BME280;28283;55.426;37.756;2023-02-14T15:49:26;99101.28;;;0.51;75.85
42671;BME280;28283;55.426;37.756;2023-02-14T15:54:36;99114.66;;;0.40;76.35
42671;BME280;28283;55.426;37.756;2023-02-14T15:59:40;99114.13;;;0.36;76.74
42671;BME280;28283;55.426;37.756;2023-02-14T16:04:41;99132.44;;;0.37;76.14
42671;BME280;28283;55.426;37.756;2023-02-14T16:09:42;99129.69;;;0.29;76.46
42671;BME280;28283;55.426;37.756;2023-02-14T16:14:43;99133.75;;;0.24;76.29
42671;BME280;28283;55.426;37.756;2023-02-14T16:19:45;99149.75;;;0.22;76.68
42671;BME280;28283;55.426;37.756;2023-02-14T16:24:46;99139.16;;;0.03;77.08
42671;BME280;28283;55.426;37.756;2023-02-14T16:29:47;99153.34;;;0.21;76.85
42671;BME280;28283;55.426;37.756;2023-02-14T16:34:47;99160.56;;;0.19;76.16
42671;BME280;28283;55.426;37.756;2023-02-14T16:39:50;99163.22;;;0.19;76.40
42671;BME280;28283;55.426;37.756;2023-02-14T16:44:51;99171.69;;;0.03;76.38
42671;BME280;28283;55.426;37.756;2023-02-14T16:49:52;99170.31;;;0.09;75.95
42671;BME280;28283;55.426;37.756;2023-02-14T16:54:53;99193.41;;;0.07;75.87
42671;BME280;28283;55.426;37.756;2023-02-14T16:59:55;99174.91;;;-0.03;75.99
42671;BME280;28283;55.426;37.756;2023-02-14T17:04:56;99166.94;;;-0.13;75.85
42671;BME280;28283;55.426;37.756;2023-02-14T17:10:05;99194.66;;;0.03;75.37
42671;BME280;28283;55.426;37.756;2023-02-14T17:15:13;99201.75;;;0.02;75.59
42671;BME280;28283;55.426;37.756;2023-02-14T17:20:15;99213.16;;;0.03;75.52
42671;BME280;28283;55.426;37.756;2023-02-14T17:25:19;99207.69;;;-0.06;75.33
42671;BME280;28283;55.426;37.756;2023-02-14T17:30:22;99213.81;;;-0.15;75.56
42671;BME280;28283;55.426;37.756;2023-02-14T17:35:23;99231.50;;;-0.06;75.83
42671;BME280;28283;55.426;37.756;2023-02-14T17:40:24;99239.28;;;-0.04;76.20
42671;BME280;28283;55.426;37.756;2023-02-14T17:45:26;99229.84;;;-0.07;75.34
42671;BME280;28283;55.426;37.756;2023-02-14T17:50:27;99240.09;;;-0.04;75.68
42671;BME280;28283;55.426;37.756;2023-02-14T17:55:28;99228.78;;;-0.25;76.16
42671;BME280;28283;55.426;37.756;2023-02-14T18:00:28;99244.00;;;-0.17;76.04
42671;BME280;28283;55.426;37.756;2023-02-14T18:05:29;99228.78;;;-0.25;76.52
42671;BME280;28283;55.426;37.756;2023-02-14T18:10:30;99258.34;;;-0.10;76.23
42671;BME280;28283;55.426;37.756;2023-02-14T18:15:32;99264.00;;;-0.15;76.45
42671;BME280;28283;55.426;37.756;2023-02-14T18:20:32;99239.34;;;-0.25;75.71
42671;BME280;28283;55.426;37.756;2023-02-14T18:25:33;99273.75;;;-0.15;76.04
42671;BME280;28283;55.426;37.756;2023-02-14T18:30:36;99266.75;;;-0.26;75.85
42671;BME280;28283;55.426;37.756;2023-02-14T18:35:37;99304.88;;;-0.19;76.99
42671;BME280;28283;55.426;37.756;2023-02-14T18:40:38;99283.66;;;-0.39;77.81
42671;BME280;28283;55.426;37.756;2023-02-14T18:45:40;99298.56;;;-0.37;78.45
42671;BME280;28283;55.426;37.756;2023-02-14T18:50:41;99288.75;;;-0.47;78.73
42671;BME280;28283;55.426;37.756;2023-02-14T18:55:42;99304.53;;;-0.35;78.61
42671;BME280;28283;55.426;37.756;2023-02-14T19:00:42;99308.00;;;-0.35;78.72
42671;BME280;28283;55.426;37.756;2023-02-14T19:05:43;99305.94;;;-0.31;78.71
42671;BME280;28283;55.426;37.756;2023-02-14T19:10:44;99292.97;;;-0.44;79.11
42671;BME280;28283;55.426;37.756;2023-02-14T19:15:45;99297.53;;;-0.46;79.32
42671;BME280;28283;55.426;37.756;2023-02-14T19:20:47;99318.88;;;-0.28;78.23
42671;BME280;28283;55.426;37.756;2023-02-14T19:25:48;99306.41;;;-0.47;79.03
42671;BME280;28283;55.426;37.756;2023-02-14T19:30:49;99328.00;;;-0.42;79.26
42671;BME280;28283;55.426;37.756;2023-02-14T19:35:58;99329.47;;;-0.49;79.03
42671;BME280;28283;55.426;37.756;2023-02-14T19:40:59;99340.88;;;-0.49;79.42
42671;BME280;28283;55.426;37.756;2023-02-14T19:46:02;99351.06;;;-0.44;78.93
42671;BME280;28283;55.426;37.756;2023-02-14T19:51:03;99368.25;;;-0.50;79.13
42671;BME280;28283;55.426;37.756;2023-02-14T19:56:05;99359.19;;;-0.57;79.24
42671;BME280;28283;55.426;37.756;2023-02-14T20:01:06;99368.88;;;-0.36;77.87
42671;BME280;28283;55.426;37.756;2023-02-14T20:06:06;99369.56;;;-0.34;77.13
42671;BME280;28283;55.426;37.756;2023-02-14T20:11:25;99395.09;;;-0.66;77.69
42671;BME280;28283;55.426;37.756;2023-02-14T20:16:29;99343.16;;;-1.19;77.61
42671;BME280;28283;55.426;37.756;2023-02-14T20:21:31;99405.69;;;-0.98;77.64
42671;BME280;28283;55.426;37.756;2023-02-14T20:26:33;99401.94;;;-0.96;76.64
42671;BME280;28283;55.426;37.756;2023-02-14T20:31:35;99418.34;;;-1.13;76.74
42671;BME280;28283;55.426;37.756;2023-02-14T20:36:37;99427.84;;;-1.22;76.78
42671;BME280;28283;55.426;37.756;2023-02-14T20:41:38;99442.59;;;-1.30;77.03
42671;BME280;28283;55.426;37.756;2023-02-14T20:46:38;99435.47;;;-1.19;76.16
42671;BME280;28283;55.426;37.756;2023-02-14T20:51:40;99440.78;;;-1.30;75.96
42671;BME280;28283;55.426;37.756;2023-02-14T20:56:41;99437.66;;;-1.35;76.10
42671;BME280;28283;55.426;37.756;2023-02-14T21:01:42;99453.84;;;-1.28;75.55
42671;BME280;28283;55.426;37.756;2023-02-14T21:06:43;99421.19;;;-1.71;76.54
42671;BME280;28283;55.426;37.756;2023-02-14T21:11:43;99464.56;;;-1.52;76.95
42671;BME280;28283;55.426;37.756;2023-02-14T21:16:44;99432.69;;;-1.83;77.09
42671;BME280;28283;55.426;37.756;2023-02-14T21:21:45;99474.75;;;-1.59;76.69
42671;BME280;28283;55.426;37.756;2023-02-14T21:26:45;99451.34;;;-1.41;76.06
42671;BME280;28283;55.426;37.756;2023-02-14T21:31:46;99468.75;;;-1.61;75.94
42671;BME280;28283;55.426;37.756;2023-02-14T21:36:47;99497.84;;;-1.51;75.75
42671;BME280;28283;55.426;37.756;2023-02-14T21:41:47;99491.28;;;-1.68;76.56
42671;BME280;28283;55.426;37.756;2023-02-14T21:46:48;99489.25;;;-1.65;75.64
42671;BME280;28283;55.426;37.756;2023-02-14T21:51:48;99509.63;;;-1.67;75.98
42671;BME280;28283;55.426;37.756;2023-02-14T21:56:49;99508.16;;;-1.71;75.93
42671;BME280;28283;55.426;37.756;2023-02-14T22:01:50;99503.38;;;-1.66;75.17
42671;BME280;28283;55.426;37.756;2023-02-14T22:06:51;99521.59;;;-1.74;75.31
42671;BME280;28283;55.426;37.756;2023-02-14T22:11:51;99528.19;;;-1.68;74.92
42671;BME280;28283;55.426;37.756;2023-02-14T22:16:52;99526.59;;;-1.71;75.04
42671;BME280;28283;55.426;37.756;2023-02-14T22:21:53;99537.13;;;-1.71;74.85
42671;BME280;28283;55.426;37.756;2023-02-14T22:26:53;99525.88;;;-1.84;74.72
42671;BME280;28283;55.426;37.756;2023-02-14T22:31:54;99532.09;;;-1.85;74.74
42671;BME280;28283;55.426;37.756;2023-02-14T22:36:56;99538.78;;;-1.81;74.63
42671;BME280;28283;55.426;37.756;2023-02-14T22:41:56;99548.16;;;-1.77;73.96
42671;BME280;28283;55.426;37.756;2023-02-14T22:47:00;99547.06;;;-1.86;74.33
42671;BME280;28283;55.426;37.756;2023-02-14T22:52:00;99556.19;;;-1.79;74.54
42671;BME280;28283;55.426;37.756;2023-02-14T22:57:01;99561.06;;;-1.85;75.36
42671;BME280;28283;55.426;37.756;2023-02-14T23:02:01;99562.16;;;-1.88;74.82
42671;BME280;28283;55.426;37.756;2023-02-14T23:07:02;99569.34;;;-1.90;75.04
42671;BME280;28283;55.426;37.756;2023-02-14T23:12:03;99565.72;;;-1.89;74.43
42671;BME280;28283;55.426;37.756;2023-02-14T23:17:24;99557.69;;;-1.99;74.19
42671;BME280;28283;55.426;37.756;2023-02-14T23:22:43;99588.94;;;-1.94;74.44
42671;BME280;28283;55.426;37.756;2023-02-14T23:27:45;99583.34;;;-1.89;74.63
42671;BME280;28283;55.426;37.756;2023-02-14T23:32:49;99552.75;;;-2.15;74.25
42671;BME280;28283;55.426;37.756;2023-02-14T23:37:49;99555.09;;;-2.23;74.67
42671;BME280;28283;55.426;37.756;2023-02-14T23:42:52;99595.53;;;-2.00;75.10
42671;BME280;28283;55.426;37.756;2023-02-14T23:47:53;99598.16;;;-2.00;75.39
42671;BME280;28283;55.426;37.756;2023-02-14T23:52:54;99592.75;;;-2.09;75.88
42671;BME280;28283;55.426;37.756;2023-02-14T23:57:55;99607.34;;;-2.05;76.53
